createdAt,value
2022-12-03T00:00:47.802Z,59.24
2022-12-03T00:05:48.323Z,59.11
2022-12-03T00:10:42.521Z,59.11
2022-12-03T00:15:37.178Z,59.17
2022-12-03T00:20:30.387Z,59.25
2022-12-03T00:25:24.047Z,59.16
2022-12-03T00:30:18.306Z,59.19
2022-12-03T00:35:11.490Z,59.21
2022-12-03T00:40:06.069Z,59.29
2022-12-03T00:45:00.354Z,59.12
2022-12-03T00:49:54.535Z,59.27
2022-12-03T00:54:48.359Z,59.34
2022-12-03T00:59:47.037Z,59.34
2022-12-03T01:04:41.196Z,59.30
2022-12-03T01:09:33.930Z,59.36
2022-12-03T01:14:27.113Z,59.59
2022-12-03T01:19:21.423Z,59.14
2022-12-03T01:24:16.127Z,59.14
2022-12-03T01:29:09.585Z,59.41
2022-12-03T01:34:04.790Z,59.25
2022-12-03T01:38:59.226Z,59.11
2022-12-03T01:43:54.130Z,59.21
2022-12-03T01:48:54.730Z,59.41
2022-12-03T01:53:50.415Z,59.22
2022-12-03T01:58:46.596Z,59.24
2022-12-03T02:03:42.123Z,59.08
2022-12-03T02:08:38.663Z,59.43
2022-12-03T02:13:34.098Z,59.25
2022-12-03T02:18:27.598Z,59.06
2022-12-03T02:23:23.611Z,59.15
2022-12-03T02:28:18.218Z,59.14
2022-12-03T02:33:11.217Z,59.09
2022-12-03T02:38:20.662Z,58.86
2022-12-03T02:43:16.742Z,58.84
2022-12-03T02:48:24.161Z,59.02
2022-12-03T02:53:30.960Z,58.93
2022-12-03T02:58:26.739Z,58.81
2022-12-03T03:03:22.434Z,58.59
2022-12-03T03:08:18.049Z,58.74
2022-12-03T03:13:14.644Z,58.71
2022-12-03T03:18:10.033Z,58.75
2022-12-03T03:23:24.422Z,58.74
2022-12-03T03:28:18.531Z,58.71
2022-12-03T03:33:13.701Z,58.69
2022-12-03T03:38:09.130Z,58.58
2022-12-03T03:43:03.486Z,58.84
2022-12-03T03:48:02.623Z,58.66
2022-12-03T03:52:57.046Z,58.35
2022-12-03T03:57:50.534Z,58.55
2022-12-03T04:02:44.233Z,58.49
2022-12-03T04:07:38.582Z,58.60
2022-12-03T04:12:50.395Z,58.47
2022-12-03T04:17:44.056Z,58.58
2022-12-03T04:22:41.378Z,58.46
2022-12-03T04:27:53.849Z,58.61
2022-12-03T04:33:05.363Z,58.52
2022-12-03T04:37:59.376Z,58.30
2022-12-03T04:42:53.808Z,58.21
2022-12-03T04:47:47.666Z,58.42
2022-12-03T04:52:40.896Z,58.30
2022-12-03T04:57:35.231Z,58.47
2022-12-03T05:02:29.291Z,58.28
2022-12-03T05:07:26.298Z,58.50
2022-12-03T05:12:19.701Z,58.69
2022-12-03T05:17:17.198Z,58.45
2022-12-03T05:22:10.841Z,58.56
2022-12-03T05:27:04.108Z,58.49
2022-12-03T05:31:57.633Z,58.52
2022-12-03T05:36:51.808Z,58.58
2022-12-03T05:42:04.207Z,58.36
2022-12-03T05:46:57.758Z,58.25
2022-12-03T05:51:56.698Z,58.52
2022-12-03T05:56:51.246Z,58.47
2022-12-03T06:01:45.319Z,58.36
2022-12-03T06:06:39.144Z,58.17
2022-12-03T06:11:35.086Z,58.36
2022-12-03T06:16:28.970Z,58.30
2022-12-03T06:21:23.165Z,58.15
2022-12-03T06:26:16.526Z,58.03
2022-12-03T06:31:10.356Z,58.24
2022-12-03T06:36:04.174Z,58.40
2022-12-03T06:40:58.240Z,58.29
2022-12-03T06:45:52.078Z,57.91
2022-12-03T06:50:46.042Z,57.19
2022-12-03T06:55:39.727Z,56.43
2022-12-03T07:00:33.473Z,55.93
2022-12-03T07:05:31.001Z,55.43
2022-12-03T07:10:24.850Z,54.64
2022-12-03T07:15:17.370Z,54.36
2022-12-03T07:20:12.790Z,53.88
2022-12-03T07:25:08.625Z,53.41
2022-12-03T07:30:01.695Z,53.69
2022-12-03T07:34:55.337Z,53.77
2022-12-03T07:39:48.614Z,54.19
2022-12-03T07:44:42.271Z,54.26
2022-12-03T07:49:35.810Z,54.53
2022-12-03T07:54:29.778Z,54.80
2022-12-03T07:59:23.939Z,55.25
2022-12-03T08:04:19.375Z,55.49
2022-12-03T08:09:16.041Z,55.25
2022-12-03T08:14:18.883Z,55.19
2022-12-03T08:19:15.563Z,55.02
2022-12-03T08:24:16.821Z,54.74
2022-12-03T08:29:14.057Z,54.47
2022-12-03T08:34:27.275Z,54.28
2022-12-03T08:39:38.270Z,53.80
2022-12-03T08:44:37.741Z,53.22
2022-12-03T08:49:33.085Z,53.36
2022-12-03T08:54:27.310Z,53.15
2022-12-03T08:59:29.145Z,52.63
2022-12-03T09:04:24.513Z,53.10
2022-12-03T09:09:18.929Z,52.85
2022-12-03T09:14:18.477Z,52.87
2022-12-03T09:19:12.318Z,52.80
2022-12-03T09:24:06.378Z,52.98
2022-12-03T09:28:59.495Z,52.88
2022-12-03T09:33:53.277Z,53.16
2022-12-03T09:38:48.146Z,53.05
2022-12-03T09:44:03.274Z,53.16
2022-12-03T09:48:56.287Z,52.99
2022-12-03T09:53:50.778Z,53.43
2022-12-03T09:58:43.961Z,54.16
2022-12-03T10:03:46.802Z,54.31
2022-12-03T10:08:40.855Z,54.96
2022-12-03T10:13:36.802Z,56.10
2022-12-03T10:18:41.268Z,56.24
2022-12-03T10:23:35.381Z,56.63
2022-12-03T10:28:38.600Z,57.21
2022-12-03T10:33:34.075Z,58.04
2022-12-03T10:38:28.036Z,58.54
2022-12-03T10:43:25.832Z,58.49
2022-12-03T10:48:28.238Z,58.77
2022-12-03T10:53:28.504Z,59.00
2022-12-03T10:58:27.083Z,59.74
2022-12-03T11:03:22.615Z,60.53
2022-12-03T11:08:25.103Z,61.12
2022-12-03T11:13:33.369Z,61.00
2022-12-03T11:18:38.937Z,60.77
2022-12-03T11:23:51.783Z,60.31
2022-12-03T11:28:47.362Z,60.13
2022-12-03T11:33:42.423Z,60.12
2022-12-03T11:38:38.054Z,59.70
2022-12-03T11:43:53.031Z,59.22
2022-12-03T11:48:46.917Z,59.40
2022-12-03T11:53:41.758Z,59.53
2022-12-03T11:58:46.218Z,59.92
2022-12-03T12:03:50.075Z,60.46
2022-12-03T12:08:52.722Z,61.03
2022-12-03T12:13:45.700Z,61.37
2022-12-03T12:18:55.419Z,62.11
2022-12-03T12:23:50.369Z,62.17
2022-12-03T12:28:44.519Z,62.83
2022-12-03T12:33:38.037Z,63.16
2022-12-03T12:38:31.928Z,60.52
2022-12-03T12:43:27.666Z,62.24
2022-12-03T12:48:32.370Z,62.64
2022-12-03T12:53:31.050Z,63.06
2022-12-03T12:58:25.818Z,63.22
2022-12-03T13:03:20.842Z,63.82
2022-12-03T13:08:32.401Z,64.08
2022-12-03T13:13:29.774Z,63.45
2022-12-03T13:18:26.185Z,63.80
2022-12-03T13:23:28.334Z,63.50
2022-12-03T13:28:21.434Z,64.61
2022-12-03T13:33:27.462Z,63.80
2022-12-03T13:38:22.706Z,64.23
2022-12-03T13:43:19.293Z,64.11
2022-12-03T13:48:32.065Z,64.10
2022-12-03T13:53:33.615Z,64.26
2022-12-03T13:58:26.969Z,64.79
2022-12-03T14:03:20.879Z,64.95
2022-12-03T14:08:14.138Z,64.85
2022-12-03T14:13:07.812Z,65.71
2022-12-03T14:18:06.040Z,65.37
2022-12-03T14:22:59.781Z,65.69
2022-12-03T14:27:52.889Z,65.09
2022-12-03T14:32:46.377Z,65.12
2022-12-03T14:37:40.064Z,65.42
2022-12-03T14:42:33.775Z,65.43
2022-12-03T14:47:27.953Z,64.59
2022-12-03T14:52:21.249Z,64.74
2022-12-03T14:57:15.929Z,65.01
2022-12-03T15:02:10.688Z,64.90
2022-12-03T15:07:04.819Z,64.79
2022-12-03T15:11:58.611Z,64.90
2022-12-03T15:16:51.804Z,64.81
2022-12-03T15:21:45.910Z,64.93
2022-12-03T15:26:39.274Z,64.75
2022-12-03T15:31:32.922Z,64.63
2022-12-03T15:36:26.094Z,64.46
2022-12-03T15:41:24.450Z,65.03
2022-12-03T15:46:18.158Z,64.83
2022-12-03T15:51:11.895Z,64.72
2022-12-03T15:56:07.374Z,64.79
2022-12-03T16:01:01.431Z,64.63
2022-12-03T16:05:55.072Z,64.60
2022-12-03T16:10:48.226Z,64.72
2022-12-03T16:15:41.762Z,64.73
2022-12-03T16:20:34.942Z,64.80
2022-12-03T16:25:28.512Z,64.82
2022-12-03T16:30:22.529Z,64.62
2022-12-03T16:35:16.087Z,64.93
2022-12-03T16:40:11.309Z,64.66
2022-12-03T16:45:04.310Z,64.77
2022-12-03T16:49:58.753Z,64.67
2022-12-03T16:54:53.017Z,64.62
2022-12-03T16:59:47.410Z,64.54
2022-12-03T17:04:41.108Z,64.61
2022-12-03T17:09:34.384Z,64.55
2022-12-03T17:14:33.042Z,64.47
2022-12-03T17:19:27.599Z,64.49
2022-12-03T17:24:21.709Z,64.73
2022-12-03T17:29:14.958Z,64.77
2022-12-03T17:34:08.687Z,64.57
2022-12-03T17:39:01.659Z,64.61
2022-12-03T17:43:55.417Z,64.85
2022-12-03T17:48:48.242Z,64.63
2022-12-03T17:53:41.998Z,64.42
2022-12-03T17:58:35.808Z,64.60
2022-12-03T18:03:30.160Z,64.83
2022-12-03T18:08:24.183Z,64.78
2022-12-03T18:13:17.731Z,64.66
2022-12-03T18:18:11.426Z,64.62
2022-12-03T18:23:05.103Z,64.64
2022-12-03T18:27:58.623Z,64.40
2022-12-03T18:32:52.474Z,64.33
2022-12-03T18:37:45.041Z,64.45
2022-12-03T18:42:39.482Z,64.25
2022-12-03T18:47:33.598Z,64.30
2022-12-03T18:52:27.035Z,64.72
2022-12-03T18:57:20.521Z,64.69
2022-12-03T19:02:38.991Z,64.54
2022-12-03T19:07:31.283Z,64.78
2022-12-03T19:12:24.766Z,64.51
2022-12-03T19:17:18.662Z,64.46
2022-12-03T19:22:12.438Z,64.32
2022-12-03T19:27:06.195Z,64.22
2022-12-03T19:32:00.253Z,64.43
2022-12-03T19:36:54.126Z,64.41
2022-12-03T19:41:47.593Z,64.20
2022-12-03T19:46:42.206Z,64.33
2022-12-03T19:51:39.342Z,64.30
2022-12-03T19:56:33.861Z,64.19
2022-12-03T20:01:33.708Z,64.14
2022-12-03T20:06:34.160Z,64.40
2022-12-03T20:11:32.316Z,64.18
2022-12-03T20:16:26.988Z,64.06
2022-12-03T20:21:21.145Z,63.87
2022-12-03T20:26:17.625Z,64.17
2022-12-03T20:31:14.308Z,64.11
2022-12-03T20:36:09.599Z,64.28
2022-12-03T20:41:11.258Z,64.14
2022-12-03T20:46:14.112Z,64.10
2022-12-03T20:51:13.633Z,63.99
2022-12-03T20:56:08.400Z,63.93
2022-12-03T21:01:16.706Z,64.04
2022-12-03T21:06:11.167Z,63.79
2022-12-03T21:11:15.858Z,63.79
2022-12-03T21:16:11.319Z,63.87
2022-12-03T21:21:05.485Z,63.89
2022-12-03T21:26:17.685Z,63.84
2022-12-03T21:31:20.462Z,63.65
2022-12-03T21:36:17.798Z,63.96
2022-12-03T21:41:11.357Z,63.69
2022-12-03T21:47:10.206Z,63.86
2022-12-03T21:51:22.357Z,63.87
2022-12-03T21:56:19.118Z,63.93
2022-12-03T22:01:26.977Z,63.93
2022-12-03T22:06:20.912Z,63.70
2022-12-03T22:11:18.283Z,63.77
2022-12-03T22:16:15.240Z,63.80
2022-12-03T22:21:15.154Z,63.59
2022-12-03T22:26:12.380Z,63.62
2022-12-03T22:31:09.983Z,63.67
2022-12-03T22:36:07.241Z,63.55
2022-12-03T22:41:00.974Z,63.54
2022-12-03T22:45:56.009Z,63.53
2022-12-03T22:50:50.646Z,63.46
2022-12-03T22:55:44.179Z,63.46
2022-12-03T23:00:42.525Z,63.50
2022-12-03T23:05:38.981Z,63.43
2022-12-03T23:10:35.438Z,63.54
2022-12-03T23:15:28.958Z,63.48
2022-12-03T23:20:22.493Z,63.40
2022-12-03T23:25:17.565Z,63.34
2022-12-03T23:30:10.986Z,63.28
2022-12-03T23:35:05.119Z,63.21
2022-12-03T23:40:03.152Z,63.30
2022-12-03T23:44:57.466Z,63.20
2022-12-03T23:49:52.038Z,63.22
2022-12-03T23:54:45.826Z,63.03
2022-12-03T23:59:42.830Z,63.11
